Time;durP1;ratioP1;P1;durP2;ratioP2;P2;SDS_P1;SDS_P2;PMS_P1;PMS_P2;Temp;Humidity;BMP_temperature;BMP_pressure;BME280_temperature;BME280_humidity;BME280_pressure;Samples;Min_cycle;Max_cycle;Signal;HPM_P1;HPM_P2
2021/09/08 00:00:25;;;;;;;10.50;9.50;;;;;;;;;;5096493;28;20032;-72
2021/09/08 00:02:51;;;;;;;10.25;9.07;;;;;;;;;;5090185;28;20543;-68
2021/09/08 00:05:17;;;;;;;12.25;9.57;;;;;;;;;;5100935;28;20031;-73
2021/09/08 00:07:43;;;;;;;10.25;9.32;;;;;;;;;;5093573;28;20027;-73
2021/09/08 00:10:10;;;;;;;10.80;9.63;;;;;;;;;;5094746;28;20048;-73
2021/09/08 00:12:37;;;;;;;10.50;9.40;;;;;;;;;;5093847;28;20016;-73
2021/09/08 00:15:04;;;;;;;10.63;9.52;;;;;;;;;;5093724;28;20039;-73
2021/09/08 00:17:31;;;;;;;11.02;9.60;;;;;;;;;;5092021;28;20111;-73
2021/09/08 00:19:57;;;;;;;10.77;9.68;;;;;;;;;;5096550;28;20028;-73
2021/09/08 00:22:23;;;;;;;10.70;9.55;;;;;;;;;;5091121;28;20052;-73
2021/09/08 00:24:49;;;;;;;10.45;9.35;;;;;;;;;;5095850;28;20039;-73
2021/09/08 00:27:16;;;;;;;10.68;8.80;;;;;;;;;;5072633;28;20016;-72
2021/09/08 00:29:42;;;;;;;9.85;8.85;;;;;;;;;;5095321;28;20019;-73
2021/09/08 00:32:08;;;;;;;10.30;9.30;;;;;;;;;;5092408;28;20103;-73
2021/09/08 00:34:35;;;;;;;10.18;9.27;;;;;;;;;;5093429;28;20085;-73
2021/09/08 00:37:01;;;;;;;11.18;9.65;;;;;;;;;;5094277;28;20039;-73
2021/09/08 00:39:27;;;;;;;10.05;9.00;;;;;;;;;;5091003;28;20380;-74
2021/09/08 00:41:53;;;;;;;10.20;8.60;;;;;;;;;;5100257;28;20032;-73
2021/09/08 00:44:19;;;;;;;9.27;8.38;;;;;;;;;;5095475;28;20017;-71
2021/09/08 00:46:46;;;;;;;10.45;9.45;;;;;;;;;;5099470;28;20482;-72
2021/09/08 00:49:12;;;;;;;9.30;8.40;;;;;;;;;;5095731;28;20063;-73
2021/09/08 00:51:39;;;;;;;10.20;8.98;;;;;;;;;;5092295;28;20111;-73
2021/09/08 00:54:12;;;;;;;9.63;8.63;;;;;;;;;;5097552;28;20468;-69
2021/09/08 00:56:40;;;;;;;9.57;8.60;;;;;;;;;;5096722;28;20046;-72
2021/09/08 00:59:06;;;;;;;9.65;8.75;;;;;;;;;;5097632;28;20019;-74
2021/09/08 01:01:33;;;;;;;9.85;8.85;;;;;;;;;;5096664;28;20028;-73
2021/09/08 01:03:59;;;;;;;9.57;8.52;;;;;;;;;;5096869;28;20513;-73
2021/09/08 01:06:25;;;;;;;10.85;8.73;;;;;;;;;;5099662;28;20499;-72
2021/09/08 01:08:52;;;;;;;9.60;8.48;;;;;;;;;;5094395;28;20024;-72
2021/09/08 01:11:18;;;;;;;10.02;9.02;;;;;;;;;;5096743;28;20044;-70
2021/09/08 01:13:44;;;;;;;10.05;8.85;;;;;;;;;;5094253;28;20067;-72
2021/09/08 01:16:11;;;;;;;9.45;8.57;;;;;;;;;;5095168;28;20027;-72
2021/09/08 01:18:37;;;;;;;8.90;8.10;;;;;;;;;;5095356;28;20038;-73
2021/09/08 01:21:03;;;;;;;9.07;8.18;;;;;;;;;;5097155;28;20235;-74
2021/09/08 01:23:30;;;;;;;9.95;8.95;;;;;;;;;;5095836;28;20430;-72
2021/09/08 01:25:57;;;;;;;9.57;8.68;;;;;;;;;;5095153;28;20020;-73
2021/09/08 01:28:23;;;;;;;9.63;8.63;;;;;;;;;;5097592;28;20466;-71
2021/09/08 01:30:56;;;;;;;10.65;9.23;;;;;;;;;;5090736;28;20059;-73
2021/09/08 01:33:22;;;;;;;9.02;8.13;;;;;;;;;;5096213;28;20031;-73
2021/09/08 01:35:48;;;;;;;10.70;8.63;;;;;;;;;;5094616;28;20487;-72
2021/09/08 01:38:15;;;;;;;9.70;8.68;;;;;;;;;;5103705;28;20027;-73
2021/09/08 01:40:41;;;;;;;9.70;8.70;;;;;;;;;;5095728;28;20475;-73
2021/09/08 01:43:07;;;;;;;9.20;7.90;;;;;;;;;;5095973;28;20032;-72
2021/09/08 01:45:33;;;;;;;9.20;8.25;;;;;;;;;;5101640;28;20012;-73
2021/09/08 01:48:00;;;;;;;9.43;8.52;;;;;;;;;;5094619;28;20107;-72
2021/09/08 01:50:26;;;;;;;9.60;8.43;;;;;;;;;;5081585;28;20490;-72
2021/09/08 01:52:52;;;;;;;13.90;9.27;;;;;;;;;;5096225;28;20062;-73
2021/09/08 01:55:18;;;;;;;9.63;8.77;;;;;;;;;;5096939;28;20028;-72
2021/09/08 01:57:44;;;;;;;9.48;8.57;;;;;;;;;;5095738;28;20031;-71
2021/09/08 02:00:12;;;;;;;10.70;9.25;;;;;;;;;;5096422;28;20476;-72
2021/09/08 02:02:38;;;;;;;10.35;9.32;;;;;;;;;;5096103;28;20424;-73
2021/09/08 02:05:04;;;;;;;11.05;9.50;;;;;;;;;;5080256;28;20380;-73
2021/09/08 02:07:30;;;;;;;10.25;9.25;;;;;;;;;;5095836;28;20102;-72
2021/09/08 02:09:57;;;;;;;10.45;9.35;;;;;;;;;;5090790;28;20044;-74
2021/09/08 02:12:23;;;;;;;10.02;9.00;;;;;;;;;;5095172;28;20075;-73
2021/09/08 02:14:49;;;;;;;12.57;8.93;;;;;;;;;;5092575;28;20016;-73
2021/09/08 02:17:15;;;;;;;9.98;9.00;;;;;;;;;;5095797;28;20051;-71
2021/09/08 02:19:41;;;;;;;10.82;9.85;;;;;;;;;;5095448;28;20084;-73
2021/09/08 02:22:08;;;;;;;10.95;9.88;;;;;;;;;;5095413;28;20024;-73
2021/09/08 02:24:34;;;;;;;10.00;8.95;;;;;;;;;;5094935;28;20467;-71
2021/09/08 02:27:00;;;;;;;10.25;9.25;;;;;;;;;;5094102;28;20481;-73
2021/09/08 02:29:26;;;;;;;10.32;9.32;;;;;;;;;;5095195;28;20024;-73
2021/09/08 02:31:52;;;;;;;10.40;9.40;;;;;;;;;;5096107;28;20023;-73
2021/09/08 02:34:18;;;;;;;10.70;9.63;;;;;;;;;;5096469;28;20021;-73
2021/09/08 02:36:44;;;;;;;10.75;9.82;;;;;;;;;;5095313;28;20053;-73
2021/09/08 02:39:11;;;;;;;10.32;9.15;;;;;;;;;;5094936;28;20015;-73
2021/09/08 02:41:37;;;;;;;12.23;9.57;;;;;;;;;;5095458;28;20027;-73
2021/09/08 02:44:03;;;;;;;10.25;9.30;;;;;;;;;;5097532;28;20027;-73
2021/09/08 02:46:29;;;;;;;14.07;10.20;;;;;;;;;;5073925;28;20362;-73
2021/09/08 02:48:56;;;;;;;10.88;9.88;;;;;;;;;;5095050;28;20028;-73
2021/09/08 02:51:22;;;;;;;10.80;9.75;;;;;;;;;;5093179;28;20030;-74
2021/09/08 02:53:48;;;;;;;10.85;9.85;;;;;;;;;;5095914;28;20028;-73
2021/09/08 02:56:14;;;;;;;10.93;9.82;;;;;;;;;;5093698;28;20494;-73
2021/09/08 02:58:41;;;;;;;10.90;9.80;;;;;;;;;;5092791;28;20027;-73
2021/09/08 03:01:10;;;;;;;10.65;9.55;;;;;;;;;;5095843;28;20024;-73
2021/09/08 03:03:36;;;;;;;11.77;10.20;;;;;;;;;;5078568;28;20396;-73
2021/09/08 03:06:02;;;;;;;14.10;10.48;;;;;;;;;;5073585;28;20543;-72
2021/09/08 03:08:28;;;;;;;10.30;9.18;;;;;;;;;;5087510;28;20035;-71
2021/09/08 03:10:54;;;;;;;10.52;9.48;;;;;;;;;;5093497;28;20058;-73
2021/09/08 03:13:20;;;;;;;10.10;8.90;;;;;;;;;;5070487;28;20024;-72
2021/09/08 03:15:47;;;;;;;10.70;9.70;;;;;;;;;;5091772;28;20020;-72
2021/09/08 03:18:13;;;;;;;10.15;9.23;;;;;;;;;;5089275;28;20042;-72
2021/09/08 03:20:39;;;;;;;10.07;9.18;;;;;;;;;;5089408;28;20042;-72
2021/09/08 03:23:06;;;;;;;11.98;9.13;;;;;;;;;;5094429;28;20091;-73
2021/09/08 03:25:32;;;;;;;10.27;9.35;;;;;;;;;;5087836;28;20020;-73
2021/09/08 03:27:58;;;;;;;10.88;9.80;;;;;;;;;;5092752;28;20028;-71
2021/09/08 03:30:25;;;;;;;10.15;9.15;;;;;;;;;;5090263;28;20258;-72
2021/09/08 03:32:51;;;;;;;10.30;9.20;;;;;;;;;;5091346;28;20082;-72
2021/09/08 03:35:17;;;;;;;11.18;10.10;;;;;;;;;;5092216;28;20216;-72
2021/09/08 03:37:44;;;;;;;10.88;9.75;;;;;;;;;;5088695;28;20510;-72
2021/09/08 03:40:10;;;;;;;12.15;9.60;;;;;;;;;;5092656;28;20115;-72
2021/09/08 03:42:39;;;;;;;10.43;9.43;;;;;;;;;;5090145;28;20030;-72
2021/09/08 03:45:05;;;;;;;12.00;10.02;;;;;;;;;;5091251;28;20024;-71
2021/09/08 03:47:31;;;;;;;10.95;9.43;;;;;;;;;;5092822;28;20086;-72
2021/09/08 03:49:57;;;;;;;9.88;8.88;;;;;;;;;;5091883;28;20062;-72
2021/09/08 03:52:24;;;;;;;10.30;9.30;;;;;;;;;;5091741;28;20024;-72
2021/09/08 03:54:50;;;;;;;10.88;9.10;;;;;;;;;;5088953;28;20435;-71
2021/09/08 03:57:16;;;;;;;10.77;9.77;;;;;;;;;;5091764;28;20024;-72
2021/09/08 03:59:42;;;;;;;10.13;9.25;;;;;;;;;;5091431;28;20532;-71
2021/09/08 04:02:08;;;;;;;11.15;10.02;;;;;;;;;;5091842;28;20028;-69
2021/09/08 04:04:34;;;;;;;10.43;9.10;;;;;;;;;;5091481;28;20027;-73
2021/09/08 04:07:00;;;;;;;11.40;10.07;;;;;;;;;;5091464;28;20045;-73
2021/09/08 04:09:27;;;;;;;11.00;9.75;;;;;;;;;;5093253;28;20059;-73
2021/09/08 04:11:53;;;;;;;10.23;9.32;;;;;;;;;;5087551;28;20032;-73
2021/09/08 04:14:19;;;;;;;10.55;9.55;;;;;;;;;;5094827;28;20015;-73
2021/09/08 04:16:45;;;;;;;10.65;9.57;;;;;;;;;;5091935;28;20487;-73
2021/09/08 04:19:11;;;;;;;11.05;9.15;;;;;;;;;;5094594;28;20028;-69
2021/09/08 04:21:37;;;;;;;10.20;9.07;;;;;;;;;;5097145;28;20036;-72
2021/09/08 04:24:03;;;;;;;10.18;9.27;;;;;;;;;;5092155;28;20028;-73
2021/09/08 04:26:30;;;;;;;10.98;9.90;;;;;;;;;;5098494;28;20019;-72
2021/09/08 04:28:56;;;;;;;10.23;9.18;;;;;;;;;;5093340;28;20075;-72
2021/09/08 04:31:22;;;;;;;9.68;8.77;;;;;;;;;;5096338;28;20034;-72
2021/09/08 04:33:48;;;;;;;10.63;9.02;;;;;;;;;;5094979;28;20598;-73
2021/09/08 04:36:14;;;;;;;10.73;9.63;;;;;;;;;;5092556;28;20028;-73
2021/09/08 04:38:45;;;;;;;9.82;8.85;;;;;;;;;;5096187;28;20147;-73
2021/09/08 04:41:14;;;;;;;11.30;9.13;;;;;;;;;;5094326;28;20166;-73
2021/09/08 04:43:41;;;;;;;10.73;9.68;;;;;;;;;;5096429;28;20032;-73
2021/09/08 04:46:08;;;;;;;9.85;8.82;;;;;;;;;;5093628;28;20016;-73
2021/09/08 04:48:34;;;;;;;10.73;9.63;;;;;;;;;;5093395;28;20046;-73
2021/09/08 04:51:01;;;;;;;10.50;9.60;;;;;;;;;;5095451;28;20418;-73
2021/09/08 04:53:27;;;;;;;10.70;9.70;;;;;;;;;;5094466;28;20019;-74
2021/09/08 04:55:53;;;;;;;11.27;10.13;;;;;;;;;;5095611;28;20357;-69
2021/09/08 04:58:19;;;;;;;10.85;9.77;;;;;;;;;;5092912;28;20487;-73
2021/09/08 05:00:45;;;;;;;11.25;9.48;;;;;;;;;;5094347;28;20020;-73
2021/09/08 05:03:11;;;;;;;12.73;9.40;;;;;;;;;;5090928;28;20069;-73
2021/09/08 05:05:38;;;;;;;11.88;9.60;;;;;;;;;;5096208;28;20016;-73
2021/09/08 05:08:04;;;;;;;10.65;9.52;;;;;;;;;;5077675;28;20493;-73
2021/09/08 05:10:30;;;;;;;11.07;10.07;;;;;;;;;;5096005;28;20044;-72
2021/09/08 05:12:56;;;;;;;11.13;10.02;;;;;;;;;;5091616;28;20399;-72
2021/09/08 05:15:22;;;;;;;10.93;9.85;;;;;;;;;;5093732;28;20024;-72
2021/09/08 05:17:49;;;;;;;10.88;9.63;;;;;;;;;;5094615;28;20086;-73
2021/09/08 05:20:15;;;;;;;10.48;9.38;;;;;;;;;;5073734;28;20016;-72
2021/09/08 05:22:41;;;;;;;10.57;9.52;;;;;;;;;;5094073;28;20031;-73
2021/09/08 05:25:07;;;;;;;14.40;10.20;;;;;;;;;;5092260;28;20011;-72
2021/09/08 05:27:34;;;;;;;10.52;9.52;;;;;;;;;;5091885;28;20205;-73
2021/09/08 05:30:00;;;;;;;10.20;9.25;;;;;;;;;;5094997;28;20024;-73
2021/09/08 05:32:26;;;;;;;11.40;9.63;;;;;;;;;;5092828;28;20042;-72
2021/09/08 05:34:55;;;;;;;10.40;9.40;;;;;;;;;;5075646;28;20376;-72
2021/09/08 05:37:21;;;;;;;10.13;9.23;;;;;;;;;;5094365;28;20036;-73
2021/09/08 05:39:47;;;;;;;10.23;9.23;;;;;;;;;;5093718;28;20065;-73
2021/09/08 05:42:14;;;;;;;9.95;8.95;;;;;;;;;;5093559;28;20107;-73
2021/09/08 05:44:40;;;;;;;10.20;9.15;;;;;;;;;;5092221;28;20034;-74
2021/09/08 05:47:06;;;;;;;10.77;9.77;;;;;;;;;;5093906;28;20039;-72
2021/09/08 05:49:32;;;;;;;10.38;9.27;;;;;;;;;;5087581;28;20397;-71
2021/09/08 05:51:58;;;;;;;9.38;8.50;;;;;;;;;;5086287;28;20082;-73
2021/09/08 05:54:24;;;;;;;10.98;9.65;;;;;;;;;;5085008;28;20020;-73
2021/09/08 05:56:51;;;;;;;11.82;9.18;;;;;;;;;;5085474;28;20016;-73
2021/09/08 05:59:17;;;;;;;11.27;9.63;;;;;;;;;;5095085;28;20031;-73
2021/09/08 06:01:43;;;;;;;11.13;9.60;;;;;;;;;;5090805;28;20029;-73
2021/09/08 06:04:09;;;;;;;11.95;9.90;;;;;;;;;;5095961;28;20094;-73
2021/09/08 06:06:35;;;;;;;14.55;10.43;;;;;;;;;;5091212;28;20171;-74
2021/09/08 06:09:01;;;;;;;15.25;10.07;;;;;;;;;;5096131;28;20387;-73
2021/09/08 06:11:27;;;;;;;11.13;10.07;;;;;;;;;;5092191;28;20050;-73
2021/09/08 06:13:55;;;;;;;15.18;11.00;;;;;;;;;;5095305;28;20085;-72
2021/09/08 06:16:22;;;;;;;15.52;11.90;;;;;;;;;;5091878;28;20089;-72
2021/09/08 06:18:48;;;;;;;12.25;10.27;;;;;;;;;;5093633;28;20024;-73
2021/09/08 06:21:14;;;;;;;11.35;10.13;;;;;;;;;;5094944;28;20028;-73
2021/09/08 06:23:40;;;;;;;11.02;9.93;;;;;;;;;;5091840;28;20082;-73
2021/09/08 06:26:06;;;;;;;14.30;9.57;;;;;;;;;;5092658;28;20055;-73
2021/09/08 06:28:33;;;;;;;9.68;8.48;;;;;;;;;;5091779;28;20019;-73
2021/09/08 06:30:59;;;;;;;10.75;8.95;;;;;;;;;;5092153;28;20058;-73
2021/09/08 06:33:25;;;;;;;10.90;8.43;;;;;;;;;;5094432;28;20023;-74
2021/09/08 06:35:52;;;;;;;9.63;8.77;;;;;;;;;;5088600;28;20020;-73
2021/09/08 06:38:18;;;;;;;9.55;8.45;;;;;;;;;;5083472;28;20106;-72
2021/09/08 06:40:44;;;;;;;10.32;9.43;;;;;;;;;;5084912;28;20039;-73
2021/09/08 06:43:10;;;;;;;10.82;9.60;;;;;;;;;;5082735;28;20024;-70
2021/09/08 06:45:36;;;;;;;11.52;9.77;;;;;;;;;;5087044;28;20112;-73
2021/09/08 06:48:03;;;;;;;9.95;8.95;;;;;;;;;;5084896;28;20054;-72
2021/09/08 06:50:29;;;;;;;15.02;9.48;;;;;;;;;;5085926;28;20026;-73
2021/09/08 06:52:55;;;;;;;11.02;9.38;;;;;;;;;;5082761;28;20044;-72
2021/09/08 06:55:21;;;;;;;11.70;10.02;;;;;;;;;;5084285;28;20046;-73
2021/09/08 06:57:47;;;;;;;16.95;10.15;;;;;;;;;;5086319;28;20188;-73
2021/09/08 07:00:14;;;;;;;10.52;9.48;;;;;;;;;;5085669;28;20023;-73
2021/09/08 07:02:49;;;;;;;10.88;9.88;;;;;;;;;;5087436;28;20372;-71
2021/09/08 07:05:17;;;;;;;10.88;9.77;;;;;;;;;;5094219;28;20016;-73
2021/09/08 07:07:43;;;;;;;11.82;9.52;;;;;;;;;;5088408;28;20533;-73
2021/09/08 07:10:10;;;;;;;9.20;8.40;;;;;;;;;;5093419;28;20517;-74
2021/09/08 07:12:36;;;;;;;9.25;8.18;;;;;;;;;;5072276;28;20039;-73
2021/09/08 07:15:02;;;;;;;10.38;8.27;;;;;;;;;;5076574;28;20539;-73
2021/09/08 07:17:28;;;;;;;9.48;8.10;;;;;;;;;;5087460;28;20466;-72
2021/09/08 07:19:54;;;;;;;9.23;8.30;;;;;;;;;;5089358;28;20472;-73
2021/09/08 07:22:20;;;;;;;9.32;8.38;;;;;;;;;;5089033;28;20028;-73
2021/09/08 07:24:46;;;;;;;9.75;8.65;;;;;;;;;;5092052;28;20243;-73
2021/09/08 07:27:12;;;;;;;9.65;8.15;;;;;;;;;;5090646;28;20031;-72
2021/09/08 07:29:39;;;;;;;8.88;7.97;;;;;;;;;;5091442;28;20407;-73
2021/09/08 07:32:07;;;;;;;9.43;8.18;;;;;;;;;;5092002;28;20526;-72
2021/09/08 07:34:33;;;;;;;9.48;8.32;;;;;;;;;;5089805;28;20298;-72
2021/09/08 07:36:59;;;;;;;8.10;7.40;;;;;;;;;;5091598;28;20026;-73
2021/09/08 07:39:26;;;;;;;8.68;7.85;;;;;;;;;;5089394;28;20031;-69
2021/09/08 07:41:52;;;;;;;9.80;8.90;;;;;;;;;;5092323;28;20019;-72
2021/09/08 07:44:19;;;;;;;9.50;8.60;;;;;;;;;;5092319;28;20021;-73
2021/09/08 07:46:45;;;;;;;9.05;8.25;;;;;;;;;;5089781;28;20019;-73
2021/09/08 07:49:11;;;;;;;9.48;8.48;;;;;;;;;;5093959;28;20103;-74
2021/09/08 07:51:37;;;;;;;9.57;8.32;;;;;;;;;;5091511;28;20020;-72
2021/09/08 07:54:03;;;;;;;9.45;8.55;;;;;;;;;;5099234;28;20018;-72
2021/09/08 07:56:29;;;;;;;9.90;8.40;;;;;;;;;;5093396;28;20058;-72
2021/09/08 07:58:56;;;;;;;9.52;8.23;;;;;;;;;;5093595;28;20400;-73
2021/09/08 08:01:22;;;;;;;9.35;8.45;;;;;;;;;;5093725;28;20020;-73
2021/09/08 08:03:48;;;;;;;9.77;8.48;;;;;;;;;;5088508;28;20074;-73
2021/09/08 08:06:14;;;;;;;8.80;8.02;;;;;;;;;;5094688;28;20050;-73
2021/09/08 08:08:40;;;;;;;9.00;8.02;;;;;;;;;;5099246;28;20063;-73
2021/09/08 08:11:07;;;;;;;9.27;8.38;;;;;;;;;;5096265;28;20084;-74
2021/09/08 08:13:33;;;;;;;8.98;8.07;;;;;;;;;;5098600;28;20026;-73
2021/09/08 08:15:59;;;;;;;9.40;8.60;;;;;;;;;;5100022;28;20092;-73
2021/09/08 08:18:25;;;;;;;9.15;8.25;;;;;;;;;;5090731;28;20039;-73
2021/09/08 08:20:51;;;;;;;9.57;8.73;;;;;;;;;;5093189;28;20034;-73
2021/09/08 08:23:17;;;;;;;8.75;7.93;;;;;;;;;;5094326;28;20581;-72
2021/09/08 08:25:43;;;;;;;8.65;7.95;;;;;;;;;;5087070;28;20077;-73
2021/09/08 08:28:10;;;;;;;8.38;7.57;;;;;;;;;;5086850;28;20521;-73
2021/09/08 08:30:36;;;;;;;9.32;8.55;;;;;;;;;;5089009;28;20092;-71
2021/09/08 08:33:04;;;;;;;9.35;8.23;;;;;;;;;;5089515;28;20085;-72
2021/09/08 08:35:30;;;;;;;8.88;7.97;;;;;;;;;;5089363;28;20028;-73
2021/09/08 08:37:56;;;;;;;9.38;8.13;;;;;;;;;;5086737;28;20067;-70
2021/09/08 08:40:23;;;;;;;9.48;8.57;;;;;;;;;;5088156;28;20560;-72
2021/09/08 08:42:49;;;;;;;8.75;7.95;;;;;;;;;;5087009;28;20032;-73
2021/09/08 08:45:16;;;;;;;9.20;8.27;;;;;;;;;;5087263;28;20481;-74
2021/09/08 08:47:42;;;;;;;8.75;7.85;;;;;;;;;;5085047;28;20427;-73
2021/09/08 08:50:11;;;;;;;8.90;8.10;;;;;;;;;;5087977;28;20165;-73
2021/09/08 08:52:37;;;;;;;9.60;8.60;;;;;;;;;;5086595;28;20422;-72
2021/09/08 08:55:03;;;;;;;8.48;7.70;;;;;;;;;;5087776;28;20028;-72
2021/09/08 08:57:29;;;;;;;11.32;8.43;;;;;;;;;;5087628;28;20038;-73
2021/09/08 08:59:56;;;;;;;10.00;8.65;;;;;;;;;;5078938;28;20015;-73
2021/09/08 09:02:26;;;;;;;8.88;8.05;;;;;;;;;;5084065;28;20028;-73
2021/09/08 09:04:53;;;;;;;9.38;8.48;;;;;;;;;;5088045;28;20020;-72
2021/09/08 09:07:27;;;;;;;10.20;9.18;;;;;;;;;;5097012;28;20435;-73
2021/09/08 09:09:55;;;;;;;10.82;9.00;;;;;;;;;;5090117;28;20040;-73
2021/09/08 09:12:24;;;;;;;10.57;9.30;;;;;;;;;;5092661;28;20051;-72
2021/09/08 09:14:50;;;;;;;10.18;9.27;;;;;;;;;;5071438;28;20020;-73
2021/09/08 09:17:18;;;;;;;9.23;8.32;;;;;;;;;;5085156;28;20024;-69
2021/09/08 09:19:48;;;;;;;10.77;9.77;;;;;;;;;;5087223;28;20783;-73
2021/09/08 09:22:16;;;;;;;10.75;9.70;;;;;;;;;;5086787;28;20012;-73
2021/09/08 09:24:42;;;;;;;10.35;9.35;;;;;;;;;;5085354;28;20024;-73
2021/09/08 09:27:12;;;;;;;9.15;8.32;;;;;;;;;;5086634;28;20050;-73
2021/09/08 09:29:45;;;;;;;10.95;8.25;;;;;;;;;;5085526;28;20020;-71
2021/09/08 09:32:11;;;;;;;9.05;8.25;;;;;;;;;;5088709;28;20270;-73
2021/09/08 09:34:41;;;;;;;9.13;8.13;;;;;;;;;;5085237;28;20511;-69
2021/09/08 09:37:08;;;;;;;10.02;8.57;;;;;;;;;;5071052;28;20027;-73
2021/09/08 09:39:36;;;;;;;10.07;9.05;;;;;;;;;;5088582;28;20024;-71
2021/09/08 09:42:06;;;;;;;8.90;8.10;;;;;;;;;;5083871;28;20150;-72
2021/09/08 09:44:32;;;;;;;8.98;8.15;;;;;;;;;;5087661;28;20028;-74
2021/09/08 09:47:00;;;;;;;9.93;9.02;;;;;;;;;;5090184;28;20027;-73
2021/09/08 09:49:27;;;;;;;8.90;7.93;;;;;;;;;;5093917;28;20036;-73
2021/09/08 09:51:56;;;;;;;10.50;8.23;;;;;;;;;;5091534;28;20524;-73
2021/09/08 09:54:24;;;;;;;9.25;8.25;;;;;;;;;;5091637;28;20484;-73
2021/09/08 09:56:51;;;;;;;10.32;8.25;;;;;;;;;;5090333;28;20043;-72
2021/09/08 09:59:18;;;;;;;8.80;7.95;;;;;;;;;;5096477;28;20111;-72
2021/09/08 10:01:45;;;;;;;8.88;7.97;;;;;;;;;;5088749;28;20206;-73
2021/09/08 10:04:11;;;;;;;9.77;8.80;;;;;;;;;;5096232;28;20031;-72
2021/09/08 10:06:41;;;;;;;9.80;8.57;;;;;;;;;;5089791;28;20524;-74
2021/09/08 10:09:08;;;;;;;8.60;7.70;;;;;;;;;;5071167;28;20468;-73
2021/09/08 10:11:36;;;;;;;10.35;7.90;;;;;;;;;;5072980;28;20040;-73
2021/09/08 10:14:10;;;;;;;7.88;7.03;;;;;;;;;;5094051;28;20065;-73
2021/09/08 10:16:37;;;;;;;8.95;8.15;;;;;;;;;;5090954;28;20038;-73
2021/09/08 10:19:08;;;;;;;8.60;7.85;;;;;;;;;;5089927;28;20139;-72
2021/09/08 10:21:37;;;;;;;8.63;7.82;;;;;;;;;;5089891;28;20081;-73
2021/09/08 10:24:05;;;;;;;10.32;8.07;;;;;;;;;;5094714;28;20379;-73
2021/09/08 10:26:32;;;;;;;8.55;7.75;;;;;;;;;;5097706;28;20043;-71
2021/09/08 10:29:06;;;;;;;8.35;7.57;;;;;;;;;;5095860;28;20031;-72
2021/09/08 10:31:34;;;;;;;8.27;7.47;;;;;;;;;;5095579;28;20134;-73
2021/09/08 10:34:00;;;;;;;8.95;8.05;;;;;;;;;;5095755;28;20491;-73
2021/09/08 10:36:27;;;;;;;8.10;7.40;;;;;;;;;;5096059;28;20064;-69
2021/09/08 10:39:07;;;;;;;8.85;8.00;;;;;;;;;;5096512;28;20080;-73
2021/09/08 10:41:41;;;;;;;9.00;8.10;;;;;;;;;;5092312;28;20054;-73
2021/09/08 10:44:07;;;;;;;8.48;7.78;;;;;;;;;;5096342;28;20024;-73
2021/09/08 10:46:51;;;;;;;8.48;7.63;;;;;;;;;;5093344;28;20082;-73
2021/09/08 10:49:36;;;;;;;8.95;8.13;;;;;;;;;;5095871;28;20043;-72
2021/09/08 10:52:03;;;;;;;9.25;8.30;;;;;;;;;;5097373;28;20031;-71
2021/09/08 10:54:29;;;;;;;9.13;8.30;;;;;;;;;;5078111;28;20028;-72
2021/09/08 10:56:55;;;;;;;10.90;9.02;;;;;;;;;;5095312;28;20027;-70
2021/09/08 10:59:21;;;;;;;8.88;7.97;;;;;;;;;;5090979;28;20051;-73
2021/09/08 11:01:52;;;;;;;9.50;8.25;;;;;;;;;;5089239;28;20024;-73
2021/09/08 11:04:18;;;;;;;9.35;8.45;;;;;;;;;;5089802;28;20589;-71
2021/09/08 11:06:46;;;;;;;9.43;8.25;;;;;;;;;;5089338;28;20487;-73
2021/09/08 11:09:13;;;;;;;8.40;7.70;;;;;;;;;;5093001;28;20111;-73
2021/09/08 11:11:59;;;;;;;8.07;7.30;;;;;;;;;;5090671;28;20535;-72
2021/09/08 11:14:44;;;;;;;8.68;7.95;;;;;;;;;;5086759;28;20077;-72
2021/09/08 11:17:18;;;;;;;9.40;8.52;;;;;;;;;;5090572;28;20453;-73
2021/09/08 11:19:55;;;;;;;9.80;7.95;;;;;;;;;;5089559;28;20028;-72
2021/09/08 11:22:22;;;;;;;10.13;8.05;;;;;;;;;;5091882;28;20089;-73
2021/09/08 11:25:06;;;;;;;8.45;7.65;;;;;;;;;;5091794;28;20092;-72
2021/09/08 11:27:33;;;;;;;8.38;7.55;;;;;;;;;;5091661;28;20213;-72
2021/09/08 11:30:06;;;;;;;9.88;7.95;;;;;;;;;;5084591;28;20099;-73
2021/09/08 11:32:52;;;;;;;8.57;7.78;;;;;;;;;;5073978;28;20028;-73
2021/09/08 11:35:37;;;;;;;8.52;7.72;;;;;;;;;;5089333;28;20064;-73
2021/09/08 11:38:04;;;;;;;8.50;7.70;;;;;;;;;;5089638;28;20036;-73
2021/09/08 11:40:30;;;;;;;8.57;7.78;;;;;;;;;;5092995;28;20110;-73
2021/09/08 11:42:57;;;;;;;8.80;7.93;;;;;;;;;;5088556;28;20028;-73
2021/09/08 11:45:29;;;;;;;8.32;7.63;;;;;;;;;;5087675;28;20024;-72
2021/09/08 11:47:56;;;;;;;8.65;7.75;;;;;;;;;;5085346;28;20024;-73
2021/09/08 11:50:22;;;;;;;9.50;8.27;;;;;;;;;;5084496;28;20060;-73
2021/09/08 11:52:59;;;;;;;9.93;8.25;;;;;;;;;;5083229;28;20016;-73
2021/09/08 11:55:33;;;;;;;10.55;8.38;;;;;;;;;;5091024;28;20031;-71
2021/09/08 11:58:19;;;;;;;9.77;8.88;;;;;;;;;;5084380;28;20111;-73
2021/09/08 12:00:54;;;;;;;9.63;8.57;;;;;;;;;;5086261;28;20052;-71
2021/09/08 12:03:21;;;;;;;10.63;8.93;;;;;;;;;;5084666;28;20050;-73
2021/09/08 12:05:47;;;;;;;9.93;9.02;;;;;;;;;;5084834;28;20468;-72
2021/09/08 12:08:18;;;;;;;9.20;8.30;;;;;;;;;;5066380;28;20380;-73
2021/09/08 12:10:44;;;;;;;9.23;8.43;;;;;;;;;;5089044;28;20070;-69
2021/09/08 12:13:10;;;;;;;9.57;8.65;;;;;;;;;;5083836;28;20115;-73
2021/09/08 12:15:36;;;;;;;9.40;8.60;;;;;;;;;;5082022;28;20073;-73
2021/09/08 12:18:18;;;;;;;9.00;8.18;;;;;;;;;;5086985;28;20063;-71
2021/09/08 12:20:44;;;;;;;9.43;8.40;;;;;;;;;;5086604;28;20099;-72
2021/09/08 12:23:30;;;;;;;9.48;8.63;;;;;;;;;;5091084;28;20478;-73
2021/09/08 12:26:07;;;;;;;9.63;8.68;;;;;;;;;;5086416;28;20024;-70
2021/09/08 12:28:33;;;;;;;9.18;8.27;;;;;;;;;;5083512;28;20077;-73
2021/09/08 12:31:19;;;;;;;8.82;7.97;;;;;;;;;;5086873;28;20036;-72
2021/09/08 12:33:52;;;;;;;9.98;8.73;;;;;;;;;;5085991;28;20024;-72
2021/09/08 12:36:18;;;;;;;9.68;8.77;;;;;;;;;;5092400;28;20011;-73
2021/09/08 12:38:49;;;;;;;10.18;9.18;;;;;;;;;;5092260;28;20020;-73
2021/09/08 12:41:28;;;;;;;10.20;9.27;;;;;;;;;;5087675;28;20043;-72
2021/09/08 12:43:54;;;;;;;10.48;9.57;;;;;;;;;;5087177;28;20111;-73
2021/09/08 12:46:39;;;;;;;10.35;9.32;;;;;;;;;;5086357;28;20165;-73
2021/09/08 12:49:06;;;;;;;9.85;8.95;;;;;;;;;;5088828;28;20078;-73
2021/09/08 12:51:32;;;;;;;9.60;8.70;;;;;;;;;;5088282;28;20028;-73
2021/09/08 12:53:59;;;;;;;9.35;8.55;;;;;;;;;;5086825;28;20408;-73
2021/09/08 12:56:25;;;;;;;10.10;9.10;;;;;;;;;;5087047;28;20020;-73
2021/09/08 12:58:51;;;;;;;8.95;8.18;;;;;;;;;;5087086;28;20028;-73
2021/09/08 13:01:21;;;;;;;9.85;8.95;;;;;;;;;;5074890;28;20063;-73
2021/09/08 13:03:47;;;;;;;10.35;9.35;;;;;;;;;;5086195;28;20028;-72
2021/09/08 13:06:13;;;;;;;9.82;8.93;;;;;;;;;;5088433;28;20050;-73
2021/09/08 13:08:40;;;;;;;10.93;8.93;;;;;;;;;;5084950;28;20303;-73
2021/09/08 13:11:06;;;;;;;9.70;8.82;;;;;;;;;;5088683;28;20291;-72
2021/09/08 13:13:32;;;;;;;9.10;8.30;;;;;;;;;;5092879;28;20109;-73
2021/09/08 13:15:59;;;;;;;9.60;8.80;;;;;;;;;;5095766;28;20023;-73
2021/09/08 13:18:25;;;;;;;9.25;8.38;;;;;;;;;;5089058;28;20032;-74
2021/09/08 13:20:51;;;;;;;9.43;8.65;;;;;;;;;;5092693;28;20023;-73
2021/09/08 13:23:17;;;;;;;10.35;9.30;;;;;;;;;;5095840;28;20024;-72
2021/09/08 13:25:44;;;;;;;9.63;8.73;;;;;;;;;;5091100;28;20020;-73
2021/09/08 13:28:10;;;;;;;9.15;8.45;;;;;;;;;;5078466;28;20027;-70
2021/09/08 13:30:36;;;;;;;10.73;9.63;;;;;;;;;;5093288;28;20024;-73
2021/09/08 13:33:02;;;;;;;10.38;9.48;;;;;;;;;;5093503;28;20024;-73
2021/09/08 13:35:28;;;;;;;9.73;8.82;;;;;;;;;;5094435;28;20048;-73
2021/09/08 13:37:55;;;;;;;9.20;8.40;;;;;;;;;;5092824;28;20035;-73
2021/09/08 13:40:21;;;;;;;10.68;9.75;;;;;;;;;;5096399;28;20016;-69
2021/09/08 13:42:47;;;;;;;9.15;8.43;;;;;;;;;;5090786;28;20111;-72
2021/09/08 13:45:13;;;;;;;9.82;8.93;;;;;;;;;;5096568;28;20024;-72
2021/09/08 13:47:39;;;;;;;10.13;9.23;;;;;;;;;;5092606;28;20114;-73
2021/09/08 13:50:06;;;;;;;9.65;8.68;;;;;;;;;;5093789;28;20761;-73
2021/09/08 13:52:32;;;;;;;9.65;8.77;;;;;;;;;;5093522;28;20089;-73
2021/09/08 13:55:00;;;;;;;11.15;10.05;;;;;;;;;;5092823;28;20132;-72
2021/09/08 13:57:26;;;;;;;10.57;9.68;;;;;;;;;;5094712;28;20237;-73
2021/09/08 13:59:52;;;;;;;10.45;9.50;;;;;;;;;;5091537;28;20026;-72
2021/09/08 14:02:19;;;;;;;10.25;9.35;;;;;;;;;;5094896;28;20287;-73
2021/09/08 14:04:45;;;;;;;9.98;9.07;;;;;;;;;;5093058;28;20020;-73
2021/09/08 14:07:11;;;;;;;10.90;9.57;;;;;;;;;;5092730;28;20026;-71
2021/09/08 14:09:37;;;;;;;10.40;9.40;;;;;;;;;;5096459;28;20059;-73
2021/09/08 14:12:03;;;;;;;9.57;8.73;;;;;;;;;;5092581;28;20028;-73
2021/09/08 14:14:29;;;;;;;9.60;8.70;;;;;;;;;;5087387;28;20089;-72
2021/09/08 14:16:56;;;;;;;9.73;8.73;;;;;;;;;;5085277;28;20020;-73
2021/09/08 14:19:22;;;;;;;9.35;8.45;;;;;;;;;;5090342;28;20032;-73
2021/09/08 14:21:48;;;;;;;9.68;8.77;;;;;;;;;;5094050;28;20020;-73
2021/09/08 14:24:14;;;;;;;10.63;9.63;;;;;;;;;;5088721;28;20376;-72
2021/09/08 14:26:41;;;;;;;10.50;9.52;;;;;;;;;;5084500;28;20024;-73
2021/09/08 14:29:08;;;;;;;9.25;8.45;;;;;;;;;;5084294;28;20032;-73
2021/09/08 14:31:34;;;;;;;9.48;8.63;;;;;;;;;;5086490;28;20525;-72
2021/09/08 14:34:01;;;;;;;9.57;8.88;;;;;;;;;;5083674;28;20032;-72
2021/09/08 14:36:27;;;;;;;9.52;8.73;;;;;;;;;;5089184;28;20024;-69